createdAt,value
2018-02-15T00:01:08.004Z,5.97
2018-02-15T00:03:35.997Z,7.25
2018-02-15T00:06:03.998Z,9.40
2018-02-15T00:08:32.777Z,8.98
2018-02-15T00:11:00.764Z,10.13
2018-02-15T00:13:28.780Z,12.57
2018-02-15T00:15:56.789Z,8.02
2018-02-15T00:18:24.808Z,7.03
2018-02-15T00:20:52.825Z,7.72
2018-02-15T00:23:21.593Z,18.10
2018-02-15T00:25:49.612Z,7.43
2018-02-15T00:28:17.604Z,9.85
2018-02-15T00:30:45.600Z,7.87
2018-02-15T00:33:13.593Z,9.70
2018-02-15T00:35:41.603Z,5.82
2018-02-15T00:38:09.623Z,12.27
2018-02-15T00:40:37.620Z,9.18
2018-02-15T00:43:05.636Z,11.60
2018-02-15T00:45:33.638Z,5.97
2018-02-15T00:48:01.640Z,6.72
2018-02-15T00:50:30.402Z,10.00
2018-02-15T00:52:58.416Z,6.30
2018-02-15T00:55:26.416Z,7.10
2018-02-15T00:57:54.407Z,4.53
2018-02-15T01:00:22.428Z,9.68
2018-02-15T01:02:50.423Z,11.20
2018-02-15T01:05:18.428Z,9.40
2018-02-15T01:07:47.206Z,13.82
2018-02-15T01:10:15.197Z,5.55
2018-02-15T01:12:43.192Z,9.27
2018-02-15T01:15:11.989Z,10.50
2018-02-15T01:17:40.003Z,9.95
2018-02-15T01:20:08.764Z,9.73
2018-02-15T01:22:38.292Z,6.28
2018-02-15T01:25:06.276Z,7.30
2018-02-15T01:27:34.288Z,6.65
2018-02-15T01:30:02.302Z,17.25
2018-02-15T01:32:30.313Z,13.57
2018-02-15T01:34:58.320Z,9.60
2018-02-15T01:37:27.084Z,10.20
2018-02-15T01:39:55.092Z,7.85
2018-02-15T01:42:23.860Z,10.77
2018-02-15T01:44:51.873Z,12.70
2018-02-15T01:47:19.888Z,7.93
2018-02-15T01:49:59.891Z,8.27
2018-02-15T01:52:27.900Z,12.48
2018-02-15T01:54:55.892Z,9.40
2018-02-15T01:57:24.743Z,11.43
2018-02-15T01:59:52.784Z,9.73
2018-02-15T02:02:20.816Z,10.50
2018-02-15T02:04:48.880Z,11.68
2018-02-15T02:07:16.912Z,9.45
2018-02-15T02:09:44.981Z,10.27
2018-02-15T02:12:13.037Z,14.30
2018-02-15T02:14:41.093Z,12.02
2018-02-15T02:17:09.912Z,8.93
2018-02-15T02:19:37.954Z,15.65
2018-02-15T02:22:06.018Z,11.80
2018-02-15T02:24:34.046Z,9.40
2018-02-15T02:27:02.873Z,13.02
2018-02-15T02:29:30.937Z,12.27
2018-02-15T02:31:59.727Z,16.25
2018-02-15T02:34:28.561Z,14.20
2018-02-15T02:36:56.602Z,16.52
2018-02-15T02:39:24.675Z,9.77
2018-02-15T02:41:52.745Z,14.27
2018-02-15T02:44:20.788Z,14.30
2018-02-15T02:46:49.727Z,14.98
2018-02-15T02:49:17.756Z,11.23
2018-02-15T02:51:46.586Z,11.05
2018-02-15T02:54:14.636Z,10.57
2018-02-15T02:56:42.675Z,11.98
2018-02-15T02:59:10.743Z,10.52
2018-02-15T03:01:38.776Z,10.68
2018-02-15T03:04:06.828Z,19.02
2018-02-15T03:06:34.893Z,8.82
2018-02-15T03:09:02.935Z,14.50
2018-02-15T03:11:30.984Z,11.57
2018-02-15T03:13:59.030Z,12.55
2018-02-15T03:16:27.100Z,12.88
2018-02-15T03:18:55.925Z,8.05
2018-02-15T03:21:23.975Z,14.35
2018-02-15T03:23:52.016Z,9.93
2018-02-15T03:26:20.058Z,15.77
2018-02-15T03:28:48.894Z,16.70
2018-02-15T03:31:16.948Z,21.30
2018-02-15T03:33:44.992Z,14.48
2018-02-15T03:36:13.052Z,16.33
2018-02-15T03:38:41.095Z,13.85
2018-02-15T03:41:09.900Z,8.50
2018-02-15T03:43:37.968Z,10.63
2018-02-15T03:46:06.773Z,16.58
2018-02-15T03:48:35.600Z,19.10
2018-02-15T03:51:03.648Z,16.17
2018-02-15T03:53:31.696Z,12.07
2018-02-15T03:55:59.779Z,21.40
2018-02-15T03:58:27.833Z,14.07
2018-02-15T04:00:55.872Z,15.88
2018-02-15T04:03:23.945Z,18.00
2018-02-15T04:05:52.272Z,12.60
2018-02-15T04:08:21.081Z,14.40
2018-02-15T04:10:49.901Z,11.60
2018-02-15T04:13:17.933Z,10.20
2018-02-15T04:15:46.000Z,16.40
2018-02-15T04:18:14.047Z,9.50
2018-02-15T04:20:42.116Z,18.87
2018-02-15T04:23:10.937Z,14.52
2018-02-15T04:25:38.968Z,16.90
2018-02-15T04:28:07.043Z,21.00
2018-02-15T04:30:35.084Z,16.17
2018-02-15T04:33:03.144Z,12.00
2018-02-15T04:35:31.943Z,11.77
2018-02-15T04:38:00.772Z,20.10
2018-02-15T04:40:28.832Z,14.77
2018-02-15T04:42:57.634Z,15.43
2018-02-15T04:45:26.456Z,16.20
2018-02-15T04:47:54.493Z,17.67
2018-02-15T04:50:22.550Z,14.35
2018-02-15T04:52:50.593Z,16.17
2018-02-15T04:55:19.422Z,15.77
2018-02-15T04:57:47.479Z,15.85
2018-02-15T05:00:15.533Z,16.33
2018-02-15T05:02:43.588Z,15.30
2018-02-15T05:05:11.643Z,21.90
2018-02-15T05:07:40.449Z,13.02
2018-02-15T05:10:08.512Z,21.25
2018-02-15T05:12:37.316Z,19.50
2018-02-15T05:15:06.141Z,23.05
2018-02-15T05:17:34.188Z,20.40
2018-02-15T05:20:02.240Z,16.45
2018-02-15T05:22:30.312Z,20.70
2018-02-15T05:24:58.349Z,19.87
2018-02-15T05:27:27.173Z,16.17
2018-02-15T05:29:55.208Z,12.85
2018-02-15T05:32:23.276Z,17.62
2018-02-15T05:34:51.320Z,17.37
2018-02-15T05:37:19.371Z,12.40
2018-02-15T05:39:47.417Z,17.73
2018-02-15T05:42:15.489Z,18.77
2018-02-15T05:44:43.579Z,15.77
2018-02-15T05:47:11.600Z,18.75
2018-02-15T05:49:39.682Z,16.52
2018-02-15T05:52:07.750Z,20.90
2018-02-15T05:54:35.784Z,12.65
2018-02-15T05:57:04.600Z,19.12
2018-02-15T05:59:32.665Z,18.65
2018-02-15T06:02:01.464Z,13.40
2018-02-15T06:04:30.292Z,17.37
2018-02-15T06:06:58.358Z,22.73
2018-02-15T06:09:27.295Z,19.90
2018-02-15T06:11:55.368Z,19.37
2018-02-15T06:14:23.623Z,21.25
2018-02-15T06:16:52.454Z,16.33
2018-02-15T06:19:20.513Z,21.27
2018-02-15T06:21:49.345Z,16.40
2018-02-15T06:24:17.381Z,15.77
2018-02-15T06:26:45.446Z,18.80
2018-02-15T06:29:13.500Z,16.95
2018-02-15T06:31:41.548Z,19.65
2018-02-15T06:34:10.396Z,19.92
2018-02-15T06:36:38.439Z,16.70
2018-02-15T06:39:07.271Z,18.70
2018-02-15T06:41:35.312Z,15.57
2018-02-15T06:44:04.148Z,18.92
2018-02-15T06:46:32.201Z,15.77
2018-02-15T06:49:01.002Z,15.30
2018-02-15T06:51:29.829Z,16.62
2018-02-15T06:53:57.868Z,17.10
2018-02-15T06:56:25.920Z,19.00
2018-02-15T06:58:53.976Z,22.15
2018-02-15T07:01:22.009Z,18.90
2018-02-15T07:03:50.072Z,18.17
2018-02-15T07:06:18.108Z,16.67
2018-02-15T07:08:46.932Z,14.55
2018-02-15T07:11:14.997Z,13.73
2018-02-15T07:13:43.804Z,17.62
2018-02-15T07:16:12.639Z,14.15
2018-02-15T07:18:40.685Z,13.40
2018-02-15T07:21:09.499Z,17.90
2018-02-15T07:23:37.549Z,17.70
2018-02-15T07:26:05.607Z,15.60
2018-02-15T07:28:33.676Z,17.60
2018-02-15T07:31:01.729Z,15.10
2018-02-15T07:33:30.556Z,18.92
2018-02-15T07:35:58.596Z,14.45
2018-02-15T07:38:26.660Z,14.20
2018-02-15T07:40:54.712Z,17.08
2018-02-15T07:43:22.764Z,12.50
2018-02-15T07:45:51.581Z,12.90
2018-02-15T07:48:19.677Z,17.12
2018-02-15T07:50:47.711Z,15.30
2018-02-15T07:53:16.543Z,13.70
2018-02-15T07:55:44.617Z,18.00
2018-02-15T07:58:13.404Z,14.73
2018-02-15T08:00:41.464Z,21.00
2018-02-15T08:03:09.515Z,16.15
2018-02-15T08:05:37.553Z,13.18
2018-02-15T08:08:05.613Z,16.17
2018-02-15T08:10:33.695Z,18.67
2018-02-15T08:13:01.728Z,18.33
2018-02-15T08:15:29.796Z,19.48
2018-02-15T08:17:58.640Z,15.10
2018-02-15T08:20:26.669Z,14.63
2018-02-15T08:22:55.625Z,14.87
2018-02-15T08:25:23.656Z,17.45
2018-02-15T08:27:51.724Z,18.77
2018-02-15T08:30:19.816Z,16.50
2018-02-15T08:32:47.833Z,16.08
2018-02-15T08:35:16.675Z,19.10
2018-02-15T08:37:44.703Z,14.93
2018-02-15T08:40:12.764Z,17.23
2018-02-15T08:42:40.828Z,14.80
2018-02-15T08:45:08.873Z,19.25
2018-02-15T08:47:37.693Z,16.77
2018-02-15T08:50:05.733Z,19.87
2018-02-15T08:52:33.789Z,18.08
2018-02-15T08:55:01.828Z,20.95
2018-02-15T08:57:30.644Z,16.83
2018-02-15T08:59:58.696Z,17.52
2018-02-15T09:02:27.491Z,14.30
2018-02-15T09:04:55.551Z,15.63
2018-02-15T09:07:23.596Z,19.12
2018-02-15T09:09:51.660Z,22.05
2018-02-15T09:12:20.484Z,13.85
2018-02-15T09:14:48.533Z,17.50
2018-02-15T09:17:17.356Z,19.75
2018-02-15T09:19:45.388Z,14.15
2018-02-15T09:22:13.452Z,18.58
2018-02-15T09:24:41.506Z,14.38
2018-02-15T09:27:10.291Z,15.82
2018-02-15T09:29:39.124Z,15.32
2018-02-15T09:32:07.148Z,12.80
2018-02-15T09:34:35.200Z,17.62
2018-02-15T09:37:03.257Z,14.18
2018-02-15T09:39:32.064Z,19.85
2018-02-15T09:42:00.868Z,20.90
2018-02-15T09:44:28.951Z,15.73
2018-02-15T09:46:57.009Z,19.37
2018-02-15T09:49:25.058Z,19.77
2018-02-15T09:51:54.992Z,13.07
2018-02-15T09:54:23.070Z,16.48
2018-02-15T09:56:51.116Z,13.93
2018-02-15T09:59:19.147Z,13.40
2018-02-15T10:01:47.204Z,22.50
2018-02-15T10:04:15.241Z,16.45
2018-02-15T10:06:44.812Z,20.70
2018-02-15T10:09:12.868Z,15.60
2018-02-15T10:11:40.896Z,16.35
2018-02-15T10:14:08.949Z,12.80
2018-02-15T10:16:36.988Z,13.95
2018-02-15T10:19:05.037Z,13.05
2018-02-15T10:21:33.097Z,12.70
2018-02-15T10:24:01.135Z,14.90
2018-02-15T10:26:29.185Z,13.88
2018-02-15T10:28:57.241Z,10.90
2018-02-15T10:31:26.053Z,10.15
2018-02-15T10:33:56.498Z,12.95
2018-02-15T10:36:24.797Z,11.02
2018-02-15T10:38:52.861Z,15.00
2018-02-15T10:41:20.916Z,14.48
2018-02-15T10:43:51.402Z,15.10
2018-02-15T10:46:21.742Z,12.93
2018-02-15T10:48:49.788Z,11.05
2018-02-15T10:51:18.593Z,12.70
2018-02-15T10:53:47.417Z,14.70
2018-02-15T10:56:15.484Z,13.20
2018-02-15T10:58:44.281Z,14.65
2018-02-15T11:01:18.823Z,11.82
2018-02-15T11:03:46.897Z,16.37
2018-02-15T11:06:15.692Z,11.88
2018-02-15T11:08:44.521Z,12.73
2018-02-15T11:11:12.580Z,13.82
2018-02-15T11:13:41.376Z,9.52
2018-02-15T11:16:10.196Z,10.60
2018-02-15T11:18:38.239Z,8.60
2018-02-15T11:21:06.276Z,11.20
2018-02-15T11:23:34.319Z,10.30
2018-02-15T11:26:02.491Z,11.65
2018-02-15T11:28:30.524Z,11.77
2018-02-15T11:30:58.573Z,7.97
2018-02-15T11:33:26.628Z,10.25
2018-02-15T11:35:54.664Z,12.43
2018-02-15T11:38:23.485Z,12.98
2018-02-15T11:40:51.521Z,12.00
2018-02-15T11:43:19.568Z,9.05
2018-02-15T11:45:47.612Z,9.52
2018-02-15T11:48:16.412Z,11.82
2018-02-15T11:50:45.244Z,9.38
2018-02-15T11:53:13.273Z,10.95
2018-02-15T11:55:41.318Z,9.75
2018-02-15T11:58:09.363Z,9.38
2018-02-15T12:00:38.148Z,8.48
2018-02-15T12:03:06.208Z,10.98
2018-02-15T12:05:34.265Z,12.00
2018-02-15T12:08:02.297Z,7.85
2018-02-15T12:10:30.337Z,8.90
2018-02-15T12:12:58.384Z,6.70
2018-02-15T12:15:27.180Z,13.30
2018-02-15T12:17:55.256Z,13.05
2018-02-15T12:20:24.041Z,8.25
2018-02-15T12:22:52.098Z,9.63
2018-02-15T12:25:20.148Z,8.50
2018-02-15T12:27:48.946Z,13.77
2018-02-15T12:30:17.784Z,10.75
2018-02-15T12:32:45.865Z,7.70
2018-02-15T12:35:13.912Z,7.03
2018-02-15T12:37:42.724Z,7.00
2018-02-15T12:40:10.757Z,6.10
2018-02-15T12:42:38.814Z,10.02
2018-02-15T12:45:06.839Z,12.52
2018-02-15T12:47:34.880Z,9.25
2018-02-15T12:50:02.941Z,7.87
2018-02-15T12:52:30.972Z,9.70
2018-02-15T12:54:59.017Z,6.90
2018-02-15T12:57:27.064Z,11.70
2018-02-15T12:59:55.100Z,11.10
2018-02-15T13:02:23.160Z,9.55
2018-02-15T13:04:51.967Z,9.63
2018-02-15T13:07:19.987Z,8.68
2018-02-15T13:09:48.042Z,7.57
2018-02-15T13:12:27.972Z,6.60
2018-02-15T13:14:56.000Z,7.95
2018-02-15T13:17:24.044Z,6.57
2018-02-15T13:20:04.848Z,5.85
2018-02-15T13:22:44.905Z,10.48
2018-02-15T13:25:12.947Z,6.18
2018-02-15T13:27:52.996Z,7.35
2018-02-15T13:30:21.041Z,6.18
2018-02-15T13:32:49.088Z,7.03
2018-02-15T13:35:17.112Z,6.32
2018-02-15T13:37:45.176Z,4.35
2018-02-15T13:40:13.201Z,9.52
2018-02-15T13:42:41.248Z,7.25
2018-02-15T13:45:10.057Z,6.53
2018-02-15T13:47:38.845Z,6.87
2018-02-15T13:50:07.657Z,7.20
2018-02-15T13:52:36.473Z,8.48
2018-02-15T13:55:04.504Z,10.45
2018-02-15T13:57:32.562Z,8.85
2018-02-15T14:00:00.604Z,5.20
2018-02-15T14:02:29.408Z,5.57
2018-02-15T14:04:58.231Z,11.45
2018-02-15T14:07:26.284Z,6.12
2018-02-15T14:09:54.301Z,6.05
2018-02-15T14:12:22.386Z,6.28
2018-02-15T14:14:50.427Z,8.57
2018-02-15T14:17:18.462Z,7.30
2018-02-15T14:19:46.539Z,8.57
2018-02-15T14:22:14.589Z,12.13
2018-02-15T14:24:43.383Z,11.35
2018-02-15T14:27:12.220Z,8.77
2018-02-15T14:29:40.264Z,7.30
2018-02-15T14:32:08.329Z,6.15
2018-02-15T14:34:36.360Z,6.32
2018-02-15T14:37:04.384Z,14.10
2018-02-15T14:39:32.448Z,8.63
2018-02-15T14:42:00.510Z,8.18
2018-02-15T14:44:29.307Z,9.00
2018-02-15T14:46:58.115Z,9.00
2018-02-15T14:49:26.157Z,12.02
2018-02-15T14:51:54.196Z,6.28
2018-02-15T14:54:22.246Z,7.53
2018-02-15T14:56:51.036Z,9.57
2018-02-15T14:59:19.093Z,9.15
2018-02-15T15:01:47.140Z,9.48
2018-02-15T15:04:15.180Z,9.50
2018-02-15T15:06:43.233Z,9.48
2018-02-15T15:09:11.276Z,10.23
2018-02-15T15:11:40.072Z,8.43
2018-02-15T15:14:08.894Z,10.05
2018-02-15T15:16:36.932Z,9.68
2018-02-15T15:19:04.960Z,9.88
2018-02-15T15:21:33.008Z,11.07
2018-02-15T15:24:01.060Z,9.80
2018-02-15T15:26:29.084Z,10.95
2018-02-15T15:28:57.904Z,12.98
2018-02-15T15:31:25.956Z,10.65
2018-02-15T15:33:53.985Z,7.97
2018-02-15T15:36:22.044Z,10.00
2018-02-15T15:38:50.870Z,12.77
2018-02-15T15:41:18.912Z,12.02
2018-02-15T15:43:46.961Z,11.20
2018-02-15T15:46:15.017Z,14.85
2018-02-15T15:48:43.053Z,10.15
2018-02-15T15:51:11.092Z,11.88
2018-02-15T15:53:39.160Z,11.45
2018-02-15T15:56:07.944Z,11.63
2018-02-15T15:58:36.769Z,12.30
2018-02-15T16:01:04.828Z,9.20
2018-02-15T16:03:33.627Z,12.35
2018-02-15T16:06:02.452Z,19.40
2018-02-15T16:08:30.507Z,10.52
2018-02-15T16:10:58.527Z,10.48
2018-02-15T16:13:26.580Z,9.23
2018-02-15T16:15:55.389Z,9.05
2018-02-15T16:18:24.188Z,10.00
2018-02-15T16:20:52.244Z,10.02
2018-02-15T16:23:20.301Z,10.52
2018-02-15T16:25:48.316Z,8.63
2018-02-15T16:28:16.364Z,9.18
2018-02-15T16:30:44.417Z,9.95
2018-02-15T16:33:12.444Z,7.82
2018-02-15T16:35:40.492Z,8.27
2018-02-15T16:38:08.516Z,10.82
2018-02-15T16:40:36.568Z,13.57
2018-02-15T16:43:04.625Z,8.48
2018-02-15T16:45:33.416Z,11.18
2018-02-15T16:48:02.240Z,12.40
2018-02-15T16:50:30.296Z,10.80
2018-02-15T16:52:58.332Z,11.80
2018-02-15T16:55:26.389Z,10.07
2018-02-15T16:57:55.198Z,12.70
2018-02-15T17:00:23.219Z,8.90
2018-02-15T17:02:51.275Z,10.57
2018-02-15T17:05:19.328Z,13.65
2018-02-15T17:07:48.151Z,8.23
2018-02-15T17:10:16.192Z,13.15
2018-02-15T17:12:44.245Z,12.10
2018-02-15T17:15:12.276Z,12.60
2018-02-15T17:17:41.087Z,8.45
2018-02-15T17:20:10.015Z,11.93
2018-02-15T17:22:38.040Z,12.93
2018-02-15T17:25:06.092Z,12.85
2018-02-15T17:27:34.152Z,12.18
2018-02-15T17:30:02.188Z,11.10
2018-02-15T17:32:30.265Z,15.77
2018-02-15T17:34:58.312Z,11.18
2018-02-15T17:37:26.349Z,12.37
2018-02-15T17:39:54.408Z,11.75
2018-02-15T17:42:22.573Z,17.52
2018-02-15T17:44:50.605Z,11.98
2018-02-15T17:47:18.652Z,13.45
2018-02-15T17:49:46.705Z,12.15
2018-02-15T17:52:14.732Z,12.05
2018-02-15T17:54:42.786Z,12.45
2018-02-15T17:57:10.841Z,20.15
2018-02-15T17:59:39.640Z,9.70
2018-02-15T18:02:08.456Z,11.93
2018-02-15T18:04:36.497Z,13.20
2018-02-15T18:07:04.553Z,11.27
2018-02-15T18:09:32.607Z,11.12
2018-02-15T18:12:01.420Z,16.15
2018-02-15T18:14:29.510Z,13.13
2018-02-15T18:16:57.528Z,17.37
2018-02-15T18:19:25.575Z,17.33
2018-02-15T18:21:53.608Z,12.70
2018-02-15T18:24:21.664Z,16.60
2018-02-15T18:26:49.720Z,14.93
2018-02-15T18:29:17.768Z,13.45
2018-02-15T18:31:45.826Z,13.35
2018-02-15T18:34:13.864Z,14.50
2018-02-15T18:36:41.915Z,15.40
2018-02-15T18:39:09.969Z,15.90
2018-02-15T18:41:38.008Z,15.55
2018-02-15T18:44:06.824Z,22.40
2018-02-15T18:46:34.868Z,16.25
2018-02-15T18:49:04.429Z,15.05
2018-02-15T18:51:32.491Z,17.42
2018-02-15T18:54:01.293Z,16.40
2018-02-15T18:56:30.117Z,14.32
2018-02-15T18:58:58.155Z,18.90
2018-02-15T19:01:27.724Z,14.23
2018-02-15T19:03:55.782Z,15.00
2018-02-15T19:06:24.579Z,21.02
2018-02-15T19:08:53.410Z,16.50
2018-02-15T19:11:21.452Z,14.75
2018-02-15T19:13:49.513Z,19.33
2018-02-15T19:16:17.574Z,17.77
2018-02-15T19:18:45.600Z,14.65
2018-02-15T19:21:13.652Z,17.77
2018-02-15T19:23:41.702Z,18.80
2018-02-15T19:26:09.753Z,19.52
2018-02-15T19:28:37.812Z,18.48
2018-02-15T19:31:05.848Z,19.10
2018-02-15T19:33:33.902Z,18.10
2018-02-15T19:36:01.940Z,23.50
2018-02-15T19:38:30.000Z,20.62
2018-02-15T19:40:58.060Z,17.40
2018-02-15T19:43:26.101Z,22.33
2018-02-15T19:45:54.157Z,20.75
2018-02-15T19:48:22.205Z,18.90
2018-02-15T19:50:50.264Z,24.23
2018-02-15T19:53:18.316Z,20.02
2018-02-15T19:55:46.352Z,25.65
2018-02-15T19:58:14.426Z,27.02
2018-02-15T20:00:42.481Z,20.65
2018-02-15T20:03:10.528Z,20.67
2018-02-15T20:05:39.356Z,25.02
2018-02-15T20:08:07.424Z,22.37
2018-02-15T20:10:35.483Z,23.90
2018-02-15T20:13:03.533Z,20.95
2018-02-15T20:15:37.154Z,27.05
2018-02-15T20:18:05.209Z,27.73
2018-02-15T20:20:33.261Z,29.87
2018-02-15T20:23:02.100Z,24.33
2018-02-15T20:25:30.295Z,31.75
2018-02-15T20:28:04.121Z,24.40
2018-02-15T20:30:32.157Z,24.00
2018-02-15T20:33:00.233Z,27.77
2018-02-15T20:35:28.292Z,33.33
2018-02-15T20:38:01.928Z,26.00
2018-02-15T20:40:38.779Z,29.75
2018-02-15T20:43:06.809Z,28.27
2018-02-15T20:45:35.627Z,29.02
2018-02-15T20:48:03.664Z,29.02
2018-02-15T20:50:37.328Z,28.48
2018-02-15T20:53:11.009Z,31.55
2018-02-15T20:55:45.833Z,30.10
2018-02-15T20:58:13.895Z,29.67
2018-02-15T21:00:41.947Z,27.08
2018-02-15T21:03:10.764Z,31.17
2018-02-15T21:05:38.827Z,29.80
2018-02-15T21:08:07.637Z,30.20
2018-02-15T21:10:36.475Z,37.13
2018-02-15T21:13:04.520Z,34.78
2018-02-15T21:15:33.329Z,30.70
2018-02-15T21:18:02.160Z,29.15
2018-02-15T21:20:30.208Z,31.27
2018-02-15T21:22:59.022Z,32.70
2018-02-15T21:25:27.078Z,34.03
2018-02-15T21:27:55.121Z,30.60
2018-02-15T21:30:23.173Z,26.08
2018-02-15T21:32:51.215Z,39.63
2018-02-15T21:35:19.276Z,28.42
2018-02-15T21:37:47.349Z,32.65
2018-02-15T21:40:15.384Z,28.60
2018-02-15T21:42:44.208Z,30.77
2018-02-15T21:45:12.244Z,27.85
2018-02-15T21:47:40.312Z,33.45
2018-02-15T21:50:08.386Z,29.15
2018-02-15T21:52:36.419Z,33.33
2018-02-15T21:55:05.240Z,29.08
2018-02-15T21:57:33.284Z,36.28
2018-02-15T22:00:01.343Z,29.02
2018-02-15T22:02:29.397Z,31.85
2018-02-15T22:04:57.446Z,30.15
2018-02-15T22:07:25.497Z,36.67
2018-02-15T22:09:53.541Z,35.58
2018-02-15T22:12:22.365Z,36.50
2018-02-15T22:14:50.424Z,39.65
2018-02-15T22:17:19.227Z,33.00
2018-02-15T22:19:48.076Z,39.25
2018-02-15T22:22:16.096Z,38.97
2018-02-15T22:24:45.213Z,35.80
2018-02-15T22:27:14.032Z,35.65
2018-02-15T22:29:42.069Z,28.70
2018-02-15T22:32:10.146Z,40.00
2018-02-15T22:34:38.171Z,40.58
2018-02-15T22:37:06.231Z,36.90
2018-02-15T22:39:34.290Z,47.22
2018-02-15T22:42:02.336Z,32.47
2018-02-15T22:44:30.392Z,35.28
2018-02-15T22:46:58.496Z,37.92
2018-02-15T22:49:27.324Z,37.63
2018-02-15T22:51:55.389Z,42.22
2018-02-15T22:54:23.429Z,34.80
2018-02-15T22:56:51.700Z,45.75
2018-02-15T22:59:19.742Z,37.67
2018-02-15T23:01:47.796Z,37.25
2018-02-15T23:04:16.612Z,36.88
2018-02-15T23:06:45.420Z,36.88
2018-02-15T23:09:14.245Z,40.47
2018-02-15T23:11:42.280Z,42.05
2018-02-15T23:14:10.388Z,38.25
2018-02-15T23:16:39.204Z,33.42
2018-02-15T23:19:07.240Z,33.67
2018-02-15T23:21:36.067Z,47.00
2018-02-15T23:24:04.104Z,38.20
2018-02-15T23:26:32.159Z,34.80
2018-02-15T23:29:00.217Z,37.92
2018-02-15T23:31:28.248Z,31.45
2018-02-15T23:33:56.310Z,36.92
2018-02-15T23:36:24.352Z,35.83
2018-02-15T23:38:52.428Z,38.38
2018-02-15T23:41:20.496Z,41.30
2018-02-15T23:43:48.535Z,38.28
2018-02-15T23:46:17.361Z,32.33
2018-02-15T23:48:45.401Z,40.22
2018-02-15T23:51:14.334Z,31.67
2018-02-15T23:53:42.384Z,38.28
2018-02-15T23:56:10.429Z,30.00
2018-02-15T23:58:39.588Z,34.75
